createdAt,value
2019-01-13T00:00:11.748Z,63.78
2019-01-13T00:02:36.934Z,63.80
2019-01-13T00:05:06.187Z,63.80
2019-01-13T00:07:32.112Z,63.84
2019-01-13T00:09:58.248Z,63.83
2019-01-13T00:12:24.512Z,63.82
2019-01-13T00:14:50.439Z,63.84
2019-01-13T00:17:16.765Z,63.86
2019-01-13T00:19:42.987Z,63.85
2019-01-13T00:22:09.121Z,63.80
2019-01-13T00:24:35.112Z,63.76
2019-01-13T00:27:01.265Z,63.76
2019-01-13T00:29:27.178Z,63.77
2019-01-13T00:31:53.210Z,63.80
2019-01-13T00:34:19.271Z,63.83
2019-01-13T00:36:45.187Z,63.83
2019-01-13T00:39:11.435Z,63.91
2019-01-13T00:41:37.833Z,63.89
2019-01-13T00:44:03.941Z,63.91
2019-01-13T00:46:29.920Z,63.92
2019-01-13T00:48:56.104Z,63.97
2019-01-13T00:51:22.131Z,64.01
2019-01-13T00:53:48.050Z,63.99
2019-01-13T00:56:14.272Z,64.00
2019-01-13T00:58:40.271Z,64.04
2019-01-13T01:01:06.386Z,63.99
2019-01-13T01:03:32.504Z,64.00
2019-01-13T01:05:58.775Z,64.12
2019-01-13T01:08:24.844Z,64.11
2019-01-13T01:10:50.968Z,64.13
2019-01-13T01:13:16.886Z,64.12
2019-01-13T01:15:42.925Z,64.10
2019-01-13T01:18:09.274Z,63.99
2019-01-13T01:20:35.308Z,64.03
2019-01-13T01:23:01.471Z,64.07
2019-01-13T01:25:27.612Z,64.03
2019-01-13T01:27:53.561Z,64.07
2019-01-13T01:30:19.892Z,64.18
2019-01-13T01:32:46.189Z,64.21
2019-01-13T01:35:12.420Z,64.22
2019-01-13T01:37:38.571Z,64.25
2019-01-13T01:40:13.386Z,64.22
2019-01-13T01:42:39.543Z,64.26
2019-01-13T01:45:08.054Z,64.24
2019-01-13T01:47:34.418Z,64.25
2019-01-13T01:50:00.463Z,64.25
2019-01-13T01:52:26.470Z,64.27
2019-01-13T01:54:52.934Z,64.30
2019-01-13T01:57:19.081Z,64.32
2019-01-13T01:59:44.992Z,64.33
2019-01-13T02:02:11.266Z,64.33
2019-01-13T02:04:37.262Z,64.31
2019-01-13T02:07:03.409Z,64.32
2019-01-13T02:09:29.716Z,64.30
2019-01-13T02:11:55.708Z,64.35
2019-01-13T02:14:21.654Z,64.30
2019-01-13T02:16:47.836Z,64.30
2019-01-13T02:19:13.940Z,64.32
2019-01-13T02:21:40.075Z,64.28
2019-01-13T02:24:06.341Z,64.32
2019-01-13T02:26:32.477Z,64.27
2019-01-13T02:28:58.488Z,64.23
2019-01-13T02:31:24.644Z,64.19
2019-01-13T02:33:50.694Z,64.17
2019-01-13T02:36:16.707Z,64.24
2019-01-13T02:38:43.023Z,64.33
2019-01-13T02:41:09.050Z,64.45
2019-01-13T02:43:35.078Z,64.43
2019-01-13T02:46:01.310Z,64.66
2019-01-13T02:48:27.244Z,64.51
2019-01-13T02:50:53.278Z,64.18
2019-01-13T02:53:19.329Z,64.22
2019-01-13T02:55:45.287Z,64.30
2019-01-13T02:58:11.400Z,64.11
2019-01-13T03:00:37.761Z,64.05
2019-01-13T03:03:03.995Z,63.99
2019-01-13T03:05:29.992Z,64.07
2019-01-13T03:07:56.183Z,64.11
2019-01-13T03:10:22.504Z,64.17
2019-01-13T03:12:48.630Z,64.17
2019-01-13T03:15:19.457Z,64.18
2019-01-13T03:17:45.939Z,64.17
2019-01-13T03:20:12.479Z,64.16
2019-01-13T03:22:38.667Z,64.11
2019-01-13T03:25:12.037Z,64.17
2019-01-13T03:27:38.256Z,64.18
2019-01-13T03:30:11.017Z,64.14
2019-01-13T03:32:37.061Z,64.13
2019-01-13T03:35:05.568Z,64.19
2019-01-13T03:37:31.701Z,64.16
2019-01-13T03:39:57.846Z,64.17
2019-01-13T03:42:23.981Z,64.16
2019-01-13T03:44:50.154Z,64.23
2019-01-13T03:47:16.289Z,64.52
2019-01-13T03:49:42.315Z,64.51
2019-01-13T03:52:08.583Z,64.42
2019-01-13T03:54:34.503Z,64.42
2019-01-13T03:57:00.615Z,64.38
2019-01-13T03:59:26.899Z,64.40
2019-01-13T04:01:52.822Z,64.30
2019-01-13T04:04:18.837Z,64.30
2019-01-13T04:06:44.927Z,64.23
2019-01-13T04:09:10.862Z,64.08
2019-01-13T04:11:36.862Z,64.08
2019-01-13T04:14:03.260Z,64.08
2019-01-13T04:16:29.348Z,64.14
2019-01-13T04:18:55.311Z,64.14
2019-01-13T04:21:21.617Z,64.14
2019-01-13T04:23:47.654Z,63.91
2019-01-13T04:26:13.609Z,64.09
2019-01-13T04:28:39.860Z,64.09
2019-01-13T04:31:05.861Z,64.42
2019-01-13T04:33:31.797Z,64.42
2019-01-13T04:35:57.974Z,64.34
2019-01-13T04:38:23.978Z,64.29
2019-01-13T04:40:50.020Z,64.29
2019-01-13T04:43:16.336Z,64.29
2019-01-13T04:45:42.367Z,64.35
2019-01-13T04:48:08.409Z,64.49
2019-01-13T04:50:34.717Z,64.25
2019-01-13T04:53:00.743Z,64.25
2019-01-13T04:55:26.765Z,64.46
2019-01-13T04:57:53.054Z,64.44
2019-01-13T05:00:20.874Z,64.51
2019-01-13T05:02:46.912Z,64.40
2019-01-13T05:05:13.204Z,64.23
2019-01-13T05:07:39.352Z,64.23
2019-01-13T05:10:09.081Z,64.77
2019-01-13T05:12:35.346Z,64.75
2019-01-13T05:15:01.504Z,64.94
2019-01-13T05:17:27.516Z,64.79
2019-01-13T05:19:53.687Z,64.79
2019-01-13T05:22:19.831Z,64.89
2019-01-13T05:24:45.719Z,64.92
2019-01-13T05:27:11.904Z,64.92
2019-01-13T05:29:37.817Z,64.90
2019-01-13T05:32:03.949Z,65.02
2019-01-13T05:34:30.137Z,65.02
2019-01-13T05:36:56.042Z,65.03
2019-01-13T05:39:21.965Z,64.98
2019-01-13T05:41:47.990Z,64.95
2019-01-13T05:44:14.062Z,64.96
2019-01-13T05:46:40.060Z,64.96
2019-01-13T05:49:06.212Z,65.01
2019-01-13T05:51:32.150Z,64.86
2019-01-13T05:53:58.267Z,64.86
2019-01-13T05:56:24.442Z,64.75
2019-01-13T05:58:50.348Z,64.76
2019-01-13T06:01:16.378Z,65.06
2019-01-13T06:03:42.473Z,65.23
2019-01-13T06:06:08.472Z,65.20
2019-01-13T06:08:34.407Z,65.29
2019-01-13T06:11:00.495Z,65.31
2019-01-13T06:13:26.437Z,65.36
2019-01-13T06:15:52.420Z,65.37
2019-01-13T06:18:18.425Z,65.34
2019-01-13T06:20:44.569Z,64.94
2019-01-13T06:23:10.459Z,64.94
2019-01-13T06:25:36.669Z,65.26
2019-01-13T06:28:02.799Z,64.93
2019-01-13T06:30:28.925Z,64.93
2019-01-13T06:32:54.983Z,64.90
2019-01-13T06:35:21.176Z,64.90
2019-01-13T06:37:47.277Z,65.07
2019-01-13T06:40:15.744Z,64.93
2019-01-13T06:42:41.792Z,64.93
2019-01-13T06:45:10.486Z,65.16
2019-01-13T06:47:36.567Z,65.20
2019-01-13T06:50:05.733Z,65.14
2019-01-13T06:52:31.665Z,65.30
2019-01-13T06:54:57.978Z,65.30
2019-01-13T06:57:24.016Z,65.01
2019-01-13T06:59:50.016Z,65.01
2019-01-13T07:02:16.114Z,65.22
2019-01-13T07:04:42.025Z,64.81
2019-01-13T07:07:08.153Z,64.81
2019-01-13T07:09:34.508Z,64.93
2019-01-13T07:12:00.678Z,65.08
2019-01-13T07:14:26.594Z,65.31
2019-01-13T07:16:52.656Z,65.31
2019-01-13T07:19:18.711Z,65.03
2019-01-13T07:21:44.634Z,65.48
2019-01-13T07:24:10.790Z,65.48
2019-01-13T07:26:36.822Z,65.52
2019-01-13T07:29:03.034Z,65.34
2019-01-13T07:31:29.428Z,65.17
2019-01-13T07:33:55.488Z,65.17
2019-01-13T07:36:21.430Z,65.31
2019-01-13T07:38:47.471Z,65.20
2019-01-13T07:41:13.415Z,64.98
2019-01-13T07:43:39.342Z,64.98
2019-01-13T07:46:05.523Z,65.30
2019-01-13T07:48:31.462Z,64.95
2019-01-13T07:50:57.463Z,64.95
2019-01-13T07:53:23.640Z,65.08
2019-01-13T07:55:49.653Z,65.45
2019-01-13T07:58:15.688Z,65.45
2019-01-13T08:00:42.001Z,65.44
2019-01-13T08:03:08.111Z,65.43
2019-01-13T08:05:34.103Z,65.37
2019-01-13T08:08:00.346Z,65.11
2019-01-13T08:10:26.488Z,65.10
2019-01-13T08:12:52.500Z,65.33
2019-01-13T08:15:19.940Z,65.09
2019-01-13T08:17:46.031Z,65.29
2019-01-13T08:20:21.419Z,65.14
2019-01-13T08:22:47.440Z,65.38
2019-01-13T08:25:13.692Z,65.38
2019-01-13T08:27:39.697Z,65.23
2019-01-13T08:30:09.392Z,65.30
2019-01-13T08:32:35.335Z,65.30
2019-01-13T08:35:01.472Z,65.37
2019-01-13T08:37:27.490Z,65.40
2019-01-13T08:39:53.452Z,65.36
2019-01-13T08:42:19.533Z,65.32
2019-01-13T08:44:45.580Z,65.45
2019-01-13T08:47:11.592Z,64.99
2019-01-13T08:49:37.688Z,64.99
2019-01-13T08:52:03.848Z,65.15
2019-01-13T08:54:29.859Z,65.25
2019-01-13T08:56:55.998Z,65.21
2019-01-13T08:59:22.146Z,65.21
2019-01-13T09:01:48.225Z,65.49
2019-01-13T09:04:14.299Z,65.49
2019-01-13T09:06:40.246Z,65.09
2019-01-13T09:09:07.792Z,65.09
2019-01-13T09:11:33.900Z,65.18
2019-01-13T09:13:59.929Z,65.18
2019-01-13T09:16:26.050Z,65.41
2019-01-13T09:18:52.129Z,65.58
2019-01-13T09:21:18.045Z,65.66
2019-01-13T09:23:44.042Z,65.78
2019-01-13T09:26:10.233Z,65.83
2019-01-13T09:28:36.228Z,65.71
2019-01-13T09:31:02.374Z,65.53
2019-01-13T09:33:28.702Z,65.53
2019-01-13T09:35:54.750Z,65.65
2019-01-13T09:38:20.772Z,65.58
2019-01-13T09:40:47.034Z,65.67
2019-01-13T09:43:12.980Z,65.80
2019-01-13T09:45:38.878Z,65.80
2019-01-13T09:48:05.078Z,65.76
2019-01-13T09:50:31.113Z,65.82
2019-01-13T09:52:57.225Z,65.28
2019-01-13T09:55:23.829Z,65.28
2019-01-13T09:57:49.814Z,65.38
2019-01-13T10:00:30.944Z,65.38
2019-01-13T10:02:57.084Z,65.58
2019-01-13T10:05:23.204Z,65.54
2019-01-13T10:07:49.388Z,65.40
2019-01-13T10:10:15.432Z,65.40
2019-01-13T10:12:41.558Z,65.72
2019-01-13T10:15:21.695Z,65.46
2019-01-13T10:17:47.707Z,65.46
2019-01-13T10:20:14.544Z,65.28
2019-01-13T10:22:40.848Z,65.39
2019-01-13T10:25:08.031Z,65.39
2019-01-13T10:27:34.149Z,65.37
2019-01-13T10:30:00.488Z,65.13
2019-01-13T10:32:26.422Z,65.13
2019-01-13T10:34:52.367Z,65.49
2019-01-13T10:37:18.564Z,65.47
2019-01-13T10:39:44.500Z,65.47
2019-01-13T10:42:10.431Z,65.54
2019-01-13T10:44:36.518Z,65.59
2019-01-13T10:47:02.628Z,65.55
2019-01-13T10:49:28.692Z,65.61
2019-01-13T10:51:54.942Z,65.72
2019-01-13T10:54:20.862Z,65.41
2019-01-13T10:56:46.894Z,65.41
2019-01-13T10:59:13.152Z,65.42
2019-01-13T11:01:39.258Z,65.42
2019-01-13T11:04:05.397Z,65.40
2019-01-13T11:06:31.711Z,65.40
2019-01-13T11:08:57.738Z,65.72
2019-01-13T11:11:23.868Z,65.72
2019-01-13T11:13:49.959Z,65.68
2019-01-13T11:16:16.114Z,65.64
2019-01-13T11:18:42.182Z,65.67
2019-01-13T11:21:08.533Z,65.69
2019-01-13T11:23:34.479Z,65.75
2019-01-13T11:26:00.516Z,65.74
2019-01-13T11:28:27.053Z,65.74
2019-01-13T11:30:53.102Z,65.74
2019-01-13T11:33:19.109Z,65.63
2019-01-13T11:35:45.244Z,65.88
2019-01-13T11:38:11.149Z,65.88
2019-01-13T11:40:37.586Z,65.82
2019-01-13T11:43:04.037Z,65.64
2019-01-13T11:45:30.084Z,65.56
2019-01-13T11:47:56.020Z,65.56
2019-01-13T11:50:23.917Z,65.78
2019-01-13T11:52:50.066Z,65.83
2019-01-13T11:55:16.269Z,65.88
2019-01-13T11:57:42.767Z,65.87
2019-01-13T12:00:24.122Z,65.88
2019-01-13T12:02:50.397Z,65.88
2019-01-13T12:05:16.526Z,65.97
2019-01-13T12:07:43.240Z,66.10
2019-01-13T12:10:13.991Z,66.10
2019-01-13T12:12:40.226Z,65.81
2019-01-13T12:15:09.644Z,65.79
2019-01-13T12:17:35.734Z,65.79
2019-01-13T12:20:05.291Z,65.96
2019-01-13T12:22:31.201Z,66.17
2019-01-13T12:24:57.281Z,66.17
2019-01-13T12:27:23.217Z,65.94
2019-01-13T12:29:49.102Z,65.96
2019-01-13T12:32:15.179Z,65.98
2019-01-13T12:34:41.231Z,66.12
2019-01-13T12:37:08.510Z,66.12
2019-01-13T12:39:34.805Z,66.04
2019-01-13T12:42:00.745Z,66.08
2019-01-13T12:44:26.834Z,66.09
2019-01-13T12:46:53.035Z,66.09
2019-01-13T12:49:19.060Z,66.14
2019-01-13T12:51:45.177Z,66.18
2019-01-13T12:54:11.441Z,66.18
2019-01-13T12:56:37.349Z,66.18
2019-01-13T12:59:03.549Z,66.21
2019-01-13T13:01:29.845Z,66.19
2019-01-13T13:03:55.744Z,67.70
2019-01-13T13:06:21.713Z,67.28
2019-01-13T13:08:47.963Z,67.14
2019-01-13T13:11:14.095Z,67.13
2019-01-13T13:13:40.145Z,67.10
2019-01-13T13:16:06.480Z,67.11
2019-01-13T13:18:32.395Z,67.14
2019-01-13T13:20:58.398Z,67.13
2019-01-13T13:23:24.659Z,67.18
2019-01-13T13:25:50.658Z,67.18
2019-01-13T13:28:16.789Z,67.27
2019-01-13T13:30:43.044Z,67.32
2019-01-13T13:33:09.027Z,67.34
2019-01-13T13:35:39.603Z,67.49
2019-01-13T13:38:04.135Z,67.50
2019-01-13T13:40:30.240Z,67.54
2019-01-13T13:42:56.263Z,67.60
2019-01-13T13:45:22.515Z,67.66
2019-01-13T13:47:48.709Z,67.74
2019-01-13T13:50:20.582Z,69.33
2019-01-13T13:52:46.847Z,68.94
2019-01-13T13:55:12.943Z,68.77
2019-01-13T13:57:38.966Z,68.67
2019-01-13T14:00:17.437Z,68.62
2019-01-13T14:02:43.454Z,68.64
2019-01-13T14:05:09.460Z,68.64
2019-01-13T14:07:35.732Z,68.65
2019-01-13T14:10:03.384Z,68.66
2019-01-13T14:12:29.415Z,68.76
2019-01-13T14:14:55.571Z,68.78
2019-01-13T14:17:21.528Z,68.81
2019-01-13T14:19:47.447Z,68.82
2019-01-13T14:22:13.608Z,68.80
2019-01-13T14:24:39.645Z,68.83
2019-01-13T14:27:05.540Z,68.79
2019-01-13T14:29:31.718Z,68.88
2019-01-13T14:31:57.630Z,69.02
2019-01-13T14:34:23.550Z,69.12
2019-01-13T14:36:49.745Z,69.20
2019-01-13T14:39:15.747Z,69.27
2019-01-13T14:41:41.877Z,69.34
2019-01-13T14:44:07.967Z,69.39
2019-01-13T14:46:34.910Z,69.44
2019-01-13T14:49:00.930Z,69.54
2019-01-13T14:51:27.004Z,69.54
2019-01-13T14:53:53.044Z,69.41
2019-01-13T14:56:18.933Z,69.41
2019-01-13T14:58:45.129Z,69.58
2019-01-13T15:01:11.041Z,69.62
2019-01-13T15:03:36.944Z,69.66
2019-01-13T15:06:03.305Z,69.69
2019-01-13T15:08:29.268Z,69.73
2019-01-13T15:10:55.265Z,69.79
2019-01-13T15:13:21.254Z,69.85
2019-01-13T15:15:47.202Z,69.92
2019-01-13T15:18:13.099Z,69.95
2019-01-13T15:20:39.189Z,69.98
2019-01-13T15:23:05.322Z,70.04
2019-01-13T15:25:31.351Z,70.08
2019-01-13T15:27:57.754Z,70.13
2019-01-13T15:30:29.433Z,70.15
2019-01-13T15:32:55.432Z,70.17
2019-01-13T15:35:21.622Z,70.24
2019-01-13T15:37:47.735Z,70.30
2019-01-13T15:40:15.969Z,70.35
2019-01-13T15:42:42.352Z,70.37
2019-01-13T15:45:10.306Z,70.39
2019-01-13T15:47:36.435Z,70.43
2019-01-13T15:50:05.611Z,70.49
2019-01-13T15:52:31.539Z,70.55
2019-01-13T15:54:57.555Z,70.59
2019-01-13T15:57:25.359Z,70.65
2019-01-13T15:59:51.352Z,70.71
2019-01-13T16:02:17.350Z,70.81
2019-01-13T16:04:43.472Z,70.89
2019-01-13T16:07:09.408Z,71.00
2019-01-13T16:09:35.346Z,71.11
2019-01-13T16:12:01.489Z,71.15
2019-01-13T16:14:27.468Z,71.22
2019-01-13T16:16:53.474Z,71.24
2019-01-13T16:19:19.686Z,71.29
2019-01-13T16:21:45.630Z,71.40
2019-01-13T16:24:11.552Z,71.51
2019-01-13T16:26:37.752Z,71.59
2019-01-13T16:29:03.783Z,71.57
2019-01-13T16:31:29.916Z,71.87
2019-01-13T16:33:56.082Z,72.01
2019-01-13T16:36:22.005Z,72.09
2019-01-13T16:38:48.104Z,72.24
2019-01-13T16:41:14.283Z,72.35
2019-01-13T16:43:40.365Z,72.46
2019-01-13T16:46:06.512Z,72.57
2019-01-13T16:48:32.831Z,72.66
2019-01-13T16:50:58.860Z,72.80
2019-01-13T16:53:24.881Z,72.89
2019-01-13T16:55:50.944Z,73.02
2019-01-13T16:58:17.067Z,73.25
2019-01-13T17:00:43.260Z,73.37
2019-01-13T17:03:09.428Z,73.45
2019-01-13T17:05:35.460Z,73.53
2019-01-13T17:08:01.480Z,73.63
2019-01-13T17:10:27.622Z,73.74
2019-01-13T17:12:53.751Z,73.83
2019-01-13T17:15:25.345Z,73.95
2019-01-13T17:17:51.385Z,74.07
2019-01-13T17:20:19.348Z,74.11
2019-01-13T17:22:45.326Z,74.19
2019-01-13T17:25:17.046Z,74.23
2019-01-13T17:27:43.087Z,74.31
2019-01-13T17:30:18.977Z,74.38
2019-01-13T17:32:44.964Z,74.46
2019-01-13T17:35:10.984Z,74.52
2019-01-13T17:37:37.122Z,74.63
2019-01-13T17:40:09.376Z,74.73
2019-01-13T17:42:35.317Z,74.77
2019-01-13T17:45:01.567Z,74.81
2019-01-13T17:47:27.450Z,74.84
2019-01-13T17:49:53.387Z,74.88
2019-01-13T17:52:19.557Z,74.94
2019-01-13T17:54:45.552Z,74.94
2019-01-13T17:57:11.456Z,75.00
2019-01-13T17:59:37.642Z,75.09
2019-01-13T18:02:03.664Z,75.20
2019-01-13T18:04:29.790Z,75.23
2019-01-13T18:06:55.834Z,75.28
2019-01-13T18:09:21.737Z,75.31
2019-01-13T18:11:47.742Z,75.41
2019-01-13T18:14:19.257Z,75.50
2019-01-13T18:16:45.218Z,75.62
2019-01-13T18:19:11.251Z,75.63
2019-01-13T18:21:37.359Z,75.67
2019-01-13T18:24:03.468Z,75.69
2019-01-13T18:26:29.501Z,75.78
2019-01-13T18:28:55.809Z,75.95
2019-01-13T18:31:21.838Z,76.04
2019-01-13T18:33:47.851Z,76.15
2019-01-13T18:36:13.940Z,76.15
2019-01-13T18:38:39.866Z,76.20
2019-01-13T18:41:05.990Z,76.21
2019-01-13T18:43:32.994Z,76.31
2019-01-13T18:45:58.924Z,76.31
2019-01-13T18:48:24.908Z,76.31
2019-01-13T18:50:51.189Z,76.40
2019-01-13T18:53:17.187Z,76.40
2019-01-13T18:55:43.325Z,76.37
2019-01-13T18:58:09.597Z,76.31
2019-01-13T19:00:35.634Z,76.30
2019-01-13T19:03:01.530Z,76.31
2019-01-13T19:05:28.224Z,76.28
2019-01-13T19:07:54.356Z,76.18
2019-01-13T19:10:42.182Z,76.13
2019-01-13T19:13:26.853Z,76.03
2019-01-13T19:15:55.749Z,76.02
2019-01-13T19:18:21.841Z,76.05
2019-01-13T19:20:47.869Z,76.08
2019-01-13T19:23:14.043Z,75.98
2019-01-13T19:25:39.970Z,76.09
2019-01-13T19:28:05.968Z,76.08
2019-01-13T19:30:32.353Z,76.03
2019-01-13T19:32:58.470Z,76.12
2019-01-13T19:35:24.566Z,76.09
2019-01-13T19:37:50.802Z,76.18
2019-01-13T19:40:17.136Z,76.19
2019-01-13T19:42:43.339Z,76.21
2019-01-13T19:45:13.060Z,76.24
2019-01-13T19:47:38.957Z,76.40
2019-01-13T19:50:11.037Z,76.32
2019-01-13T19:52:37.130Z,76.28
2019-01-13T19:55:06.632Z,76.23
2019-01-13T19:57:32.636Z,76.28
2019-01-13T19:59:58.705Z,76.25
2019-01-13T20:02:24.721Z,76.33
2019-01-13T20:04:50.644Z,76.38
2019-01-13T20:07:16.698Z,76.47
2019-01-13T20:09:42.746Z,76.55
2019-01-13T20:12:08.742Z,76.63
2019-01-13T20:14:35.028Z,76.66
2019-01-13T20:17:01.037Z,76.72
2019-01-13T20:19:26.998Z,76.70
2019-01-13T20:21:52.981Z,76.70
2019-01-13T20:24:18.913Z,76.70
2019-01-13T20:26:45.037Z,76.72
2019-01-13T20:29:11.112Z,76.66
2019-01-13T20:31:37.030Z,76.63
2019-01-13T20:34:03.168Z,76.64
2019-01-13T20:36:29.274Z,76.54
2019-01-13T20:38:55.210Z,76.57
2019-01-13T20:41:21.233Z,76.57
2019-01-13T20:43:47.304Z,76.61
2019-01-13T20:46:13.231Z,76.59
2019-01-13T20:48:39.133Z,76.63
2019-01-13T20:51:05.240Z,76.65
2019-01-13T20:53:31.132Z,76.57
2019-01-13T20:55:57.085Z,76.56
2019-01-13T20:58:23.229Z,76.62
2019-01-13T21:00:49.231Z,76.55
2019-01-13T21:03:15.176Z,76.47
2019-01-13T21:05:41.354Z,76.44
2019-01-13T21:08:07.480Z,76.42
2019-01-13T21:10:33.680Z,76.29
2019-01-13T21:12:59.749Z,76.21
2019-01-13T21:15:29.572Z,76.22
2019-01-13T21:17:57.724Z,76.22
2019-01-13T21:20:23.734Z,76.30
2019-01-13T21:22:49.750Z,76.33
2019-01-13T21:25:16.567Z,76.29
2019-01-13T21:27:43.180Z,76.23
2019-01-13T21:30:12.883Z,76.19
2019-01-13T21:32:38.777Z,76.22
2019-01-13T21:35:07.367Z,76.28
2019-01-13T21:37:33.316Z,76.31
2019-01-13T21:39:59.226Z,76.22
2019-01-13T21:42:25.322Z,76.29
2019-01-13T21:44:51.254Z,76.26
2019-01-13T21:47:17.262Z,76.20
2019-01-13T21:49:43.451Z,76.17
2019-01-13T21:52:09.362Z,76.12
2019-01-13T21:54:35.306Z,76.09
2019-01-13T21:57:01.453Z,76.13
2019-01-13T21:59:27.365Z,75.99
2019-01-13T22:01:53.389Z,75.89
2019-01-13T22:04:19.381Z,75.81
2019-01-13T22:06:45.312Z,75.77
2019-01-13T22:09:11.458Z,75.70
2019-01-13T22:11:37.703Z,75.62
2019-01-13T22:14:03.724Z,75.58
2019-01-13T22:16:29.635Z,75.64
2019-01-13T22:18:55.914Z,75.61
2019-01-13T22:21:21.813Z,75.55
2019-01-13T22:23:47.826Z,75.62
2019-01-13T22:26:14.027Z,75.46
2019-01-13T22:28:39.920Z,75.41
2019-01-13T22:31:05.852Z,75.30
2019-01-13T22:33:31.899Z,75.35
2019-01-13T22:35:57.936Z,75.32
2019-01-13T22:38:23.991Z,75.19
2019-01-13T22:40:49.999Z,75.19
2019-01-13T22:43:16.010Z,75.27
2019-01-13T22:45:41.908Z,75.31
2019-01-13T22:48:08.334Z,75.24
2019-01-13T22:50:34.263Z,75.19
2019-01-13T22:53:00.166Z,75.20
2019-01-13T22:55:26.293Z,75.10
2019-01-13T22:57:52.324Z,75.23
2019-01-13T23:00:48.162Z,75.23
2019-01-13T23:03:14.188Z,75.02
2019-01-13T23:05:40.263Z,74.98
2019-01-13T23:08:06.565Z,75.00
2019-01-13T23:10:32.604Z,74.85
2019-01-13T23:12:58.588Z,74.87
2019-01-13T23:15:24.784Z,74.87
2019-01-13T23:17:50.719Z,74.86
2019-01-13T23:20:16.879Z,74.88
2019-01-13T23:22:43.108Z,74.81
2019-01-13T23:25:09.074Z,74.71
2019-01-13T23:27:34.999Z,74.70
2019-01-13T23:30:01.273Z,74.62
2019-01-13T23:32:27.260Z,74.66
2019-01-13T23:34:53.164Z,74.63
2019-01-13T23:37:19.560Z,74.68
2019-01-13T23:39:45.474Z,74.66
2019-01-13T23:42:11.511Z,74.64
2019-01-13T23:44:37.625Z,74.54
2019-01-13T23:47:03.752Z,74.51
2019-01-13T23:49:29.876Z,74.49
2019-01-13T23:51:56.053Z,74.47
2019-01-13T23:54:22.181Z,74.45
2019-01-13T23:56:48.150Z,74.37
2019-01-13T23:59:14.216Z,74.36
